RLTS3 YMES-YMES
Flight info
| Callsign | RLTS3 |
|---|---|
| Flight time | 0h 57m |
| Altitude | 6000 |
| Route | ESL DCT WSL DCT ESL |
| Aircraft | PC21/L-SDFGTUVY/C |
Departure
| Time | 2026-04-26 10:48 |
|---|---|
| Airport | RAAF Base East Sale (YMES) |
Arrival
| Time | 2026-04-26 11:45 |
|---|---|
| Airport | RAAF Base East Sale (YMES) |
| Time | Latitude | Longitude | Altitude | Speed | Heading |
|---|---|---|---|---|---|
| 2026-04-26 10:38 | -38.09905 | 147.13631 | 23 ft | 0 kts | 188° |
| 2026-04-26 10:42 | -38.09924 | 147.13622 | 27 ft | 4 kts | 250° |
| 2026-04-26 10:42 | -38.09921 | 147.13585 | 26 ft | 2 kts | 279° |
| 2026-04-26 10:43 | -38.09883 | 147.13576 | 27 ft | 1 kts | 8° |
| 2026-04-26 10:43 | -38.09863 | 147.13520 | 27 ft | 13 kts | 277° |
| 2026-04-26 10:43 | -38.09836 | 147.13467 | 27 ft | 11 kts | 8° |
| 2026-04-26 10:43 | -38.09771 | 147.13423 | 25 ft | 11 kts | 281° |
| 2026-04-26 10:44 | -38.09757 | 147.13312 | 23 ft | 14 kts | 278° |
| 2026-04-26 10:44 | -38.09745 | 147.13215 | 22 ft | 12 kts | 279° |
| 2026-04-26 10:44 | -38.09728 | 147.13080 | 20 ft | 15 kts | 278° |
| 2026-04-26 10:44 | -38.09713 | 147.12957 | 20 ft | 12 kts | 279° |
| 2026-04-26 10:45 | -38.09700 | 147.12863 | 21 ft | 3 kts | 292° |
| 2026-04-26 10:45 | -38.09687 | 147.12841 | 23 ft | 0 kts | 322° |
| 2026-04-26 10:46 | -38.09649 | 147.12829 | 22 ft | 9 kts | 8° |
| 2026-04-26 10:46 | -38.09574 | 147.12846 | 24 ft | 11 kts | 41° |
| 2026-04-26 10:46 | -38.09577 | 147.12965 | 23 ft | 3 kts | 98° |
| 2026-04-26 10:47 | -38.09579 | 147.12982 | 23 ft | 0 kts | 97° |
| 2026-04-26 10:47 | -38.09600 | 147.13161 | 24 ft | 55 kts | 99° |
| 2026-04-26 10:47 | -38.09701 | 147.13994 | 29 ft | 131 kts | 98° |
| 2026-04-26 10:48 | -38.09869 | 147.15252 | 246 ft | 167 kts | 99° |
| 2026-04-26 10:48 | -38.10081 | 147.16820 | 754 ft | 186 kts | 98° |
| 2026-04-26 10:48 | -38.10502 | 147.18419 | 1358 ft | 201 kts | 124° |
| 2026-04-26 10:48 | -38.11748 | 147.19291 | 1881 ft | 222 kts | 177° |
| 2026-04-26 10:49 | -38.13119 | 147.18434 | 2243 ft | 234 kts | 236° |
| 2026-04-26 10:49 | -38.13490 | 147.16399 | 2483 ft | 248 kts | 271° |
| 2026-04-26 10:49 | -38.13451 | 147.14160 | 2633 ft | 258 kts | 274° |
| 2026-04-26 10:49 | -38.13362 | 147.11831 | 2781 ft | 269 kts | 275° |
| 2026-04-26 10:50 | -38.13222 | 147.09453 | 2862 ft | 277 kts | 276° |
| 2026-04-26 10:50 | -38.13004 | 147.07806 | 2945 ft | 282 kts | 286° |
| 2026-04-26 10:50 | -38.12157 | 147.04654 | 2922 ft | 286 kts | 291° |
| 2026-04-26 10:50 | -38.11425 | 147.02286 | 2910 ft | 288 kts | 292° |
| 2026-04-26 10:51 | -38.10682 | 146.99929 | 2834 ft | 288 kts | 292° |
| 2026-04-26 10:51 | -38.09770 | 146.95061 | 2706 ft | 290 kts | 257° |
| 2026-04-26 10:51 | -38.10929 | 146.92964 | 2409 ft | 304 kts | 214° |
| 2026-04-26 10:52 | -38.12970 | 146.92601 | 1915 ft | 312 kts | 155° |
| 2026-04-26 10:52 | -38.14059 | 146.94869 | 1018 ft | 324 kts | 84° |
| 2026-04-26 10:52 | -38.13093 | 146.97276 | 1522 ft | 282 kts | 61° |
| 2026-04-26 10:52 | -38.13445 | 146.99406 | 2318 ft | 279 kts | 147° |
| 2026-04-26 10:53 | -38.15190 | 146.98793 | 1597 ft | 306 kts | 245° |
| 2026-04-26 10:53 | -38.14619 | 146.96500 | 1300 ft | 299 kts | 330° |
| 2026-04-26 10:53 | -38.13054 | 146.95305 | 2444 ft | 251 kts | 294° |
| 2026-04-26 10:54 | -38.14990 | 146.95325 | 1120 ft | 301 kts | 73° |
| 2026-04-26 10:54 | -38.13558 | 146.97235 | 668 ft | 309 kts | 38° |
| 2026-04-26 10:54 | -38.12534 | 146.98275 | 3568 ft | 64 kts | 214° |
| 2026-04-26 10:54 | -38.12936 | 146.98009 | 1705 ft | 177 kts | 39° |
| 2026-04-26 10:55 | -38.11847 | 147.00020 | 795 ft | 302 kts | 96° |
| 2026-04-26 10:55 | -38.13357 | 147.01210 | 1194 ft | 287 kts | 201° |
| 2026-04-26 10:55 | -38.13995 | 146.99182 | 1243 ft | 281 kts | 297° |
| 2026-04-26 10:55 | -38.12731 | 146.97226 | 731 ft | 295 kts | 313° |
| 2026-04-26 10:56 | -38.12056 | 146.96325 | 3788 ft | 96 kts | 124° |
| 2026-04-26 10:56 | -38.12148 | 146.96607 | 1041 ft | 253 kts | 316° |
| 2026-04-26 10:56 | -38.10922 | 146.94566 | 993 ft | 278 kts | 275° |
| 2026-04-26 10:56 | -38.12166 | 146.93226 | 1136 ft | 286 kts | 162° |
| 2026-04-26 10:57 | -38.12977 | 146.95327 | 750 ft | 291 kts | 87° |
| 2026-04-26 10:57 | -38.12883 | 146.97686 | 2048 ft | 186 kts | 92° |
| 2026-04-26 10:57 | -38.13405 | 146.99233 | 1837 ft | 223 kts | 88° |
| 2026-04-26 10:57 | -38.13131 | 147.01817 | 653 ft | 302 kts | 58° |
| 2026-04-26 10:58 | -38.11459 | 147.01920 | 952 ft | 288 kts | 305° |
| 2026-04-26 10:58 | -38.11517 | 146.99435 | 644 ft | 300 kts | 254° |
| 2026-04-26 10:58 | -38.12102 | 146.97020 | 1458 ft | 175 kts | 255° |
| 2026-04-26 10:58 | -38.11962 | 146.97353 | 3744 ft | 111 kts | 63° |
| 2026-04-26 10:59 | -38.12337 | 146.96013 | 414 ft | 312 kts | 251° |
| 2026-04-26 10:59 | -38.12474 | 146.93619 | 1585 ft | 262 kts | 310° |
| 2026-04-26 10:59 | -38.11075 | 146.93998 | 1121 ft | 277 kts | 75° |
| 2026-04-26 10:59 | -38.11493 | 146.96528 | 508 ft | 301 kts | 106° |
| 2026-04-26 11:00 | -38.12077 | 146.99020 | 540 ft | 296 kts | 107° |
| 2026-04-26 11:00 | -38.13216 | 147.00837 | 1430 ft | 274 kts | 174° |
| 2026-04-26 11:00 | -38.14406 | 146.99301 | 1115 ft | 286 kts | 276° |
| 2026-04-26 11:00 | -38.13506 | 146.97020 | 705 ft | 292 kts | 303° |
| 2026-04-26 11:01 | -38.12477 | 146.94913 | 831 ft | 279 kts | 302° |
| 2026-04-26 11:01 | -38.11494 | 146.92828 | 1004 ft | 268 kts | 301° |
| 2026-04-26 11:01 | -38.10901 | 146.90625 | 1156 ft | 280 kts | 257° |
| 2026-04-26 11:01 | -38.12357 | 146.89205 | 1190 ft | 288 kts | 178° |
| 2026-04-26 11:02 | -38.13954 | 146.90495 | 1196 ft | 283 kts | 115° |
| 2026-04-26 11:02 | -38.14098 | 146.92960 | 1076 ft | 286 kts | 75° |
| 2026-04-26 11:02 | -38.13534 | 146.95381 | 1080 ft | 285 kts | 72° |
| 2026-04-26 11:02 | -38.12955 | 146.97774 | 1147 ft | 283 kts | 74° |
| 2026-04-26 11:03 | -38.13170 | 147.00176 | 1551 ft | 284 kts | 121° |
| 2026-04-26 11:03 | -38.14845 | 147.01324 | 1396 ft | 298 kts | 181° |
| 2026-04-26 11:03 | -38.16604 | 147.00087 | 1297 ft | 298 kts | 238° |
| 2026-04-26 11:03 | -38.16795 | 146.97610 | 1461 ft | 285 kts | 293° |
| 2026-04-26 11:04 | -38.15748 | 146.95482 | 1451 ft | 283 kts | 305° |
| 2026-04-26 11:04 | -38.14616 | 146.93391 | 1463 ft | 287 kts | 307° |
| 2026-04-26 11:04 | -38.13527 | 146.91297 | 1633 ft | 280 kts | 296° |
| 2026-04-26 11:04 | -38.13687 | 146.88931 | 1777 ft | 291 kts | 233° |
| 2026-04-26 11:05 | -38.15493 | 146.88114 | 1748 ft | 291 kts | 165° |
| 2026-04-26 11:05 | -38.16938 | 146.89762 | 1832 ft | 286 kts | 110° |
| 2026-04-26 11:05 | -38.17013 | 146.92173 | 1837 ft | 279 kts | 71° |
| 2026-04-26 11:05 | -38.15918 | 146.94142 | 1991 ft | 276 kts | 37° |
| 2026-04-26 11:06 | -38.14306 | 146.95455 | 2191 ft | 278 kts | 37° |
| 2026-04-26 11:06 | -38.13509 | 146.97609 | 2276 ft | 287 kts | 95° |
| 2026-04-26 11:06 | -38.14769 | 146.99438 | 2146 ft | 300 kts | 168° |
| 2026-04-26 11:06 | -38.16482 | 146.98302 | 2035 ft | 301 kts | 251° |
| 2026-04-26 11:07 | -38.15714 | 146.96166 | 1470 ft | 300 kts | 342° |
| 2026-04-26 11:07 | -38.13598 | 146.96228 | 793 ft | 309 kts | 7° |
| 2026-04-26 11:07 | -38.11474 | 146.96572 | 629 ft | 304 kts | 7° |
| 2026-04-26 11:07 | -38.09381 | 146.96920 | 509 ft | 301 kts | 8° |
| 2026-04-26 11:08 | -38.07665 | 146.97229 | 2325 ft | 53 kts | 15° |
| 2026-04-26 11:08 | -38.08252 | 146.97198 | 2892 ft | 25 kts | 66° |
| 2026-04-26 11:08 | -38.06723 | 146.97844 | 633 ft | 302 kts | 46° |
| 2026-04-26 11:08 | -38.07128 | 146.99912 | 749 ft | 287 kts | 164° |
| 2026-04-26 11:09 | -38.08783 | 146.98831 | 656 ft | 293 kts | 242° |
| 2026-04-26 11:09 | -38.08854 | 146.96378 | 673 ft | 284 kts | 298° |
| 2026-04-26 11:09 | -38.07387 | 146.94844 | 1013 ft | 265 kts | 332° |
| 2026-04-26 11:09 | -38.05780 | 146.94872 | 1852 ft | 250 kts | 49° |
| 2026-04-26 11:10 | -38.06004 | 146.96993 | 1193 ft | 296 kts | 140° |
| 2026-04-26 11:10 | -38.08018 | 146.97292 | 618 ft | 310 kts | 189° |
| 2026-04-26 11:10 | -38.10073 | 146.97302 | 1209 ft | 287 kts | 176° |
| 2026-04-26 11:10 | -38.11718 | 146.96060 | 1509 ft | 278 kts | 238° |
| 2026-04-26 11:11 | -38.12375 | 146.93699 | 1754 ft | 287 kts | 255° |
| 2026-04-26 11:11 | -38.13215 | 146.91513 | 2057 ft | 271 kts | 214° |
| 2026-04-26 11:11 | -38.15009 | 146.91557 | 1735 ft | 290 kts | 137° |
| 2026-04-26 11:11 | -38.15441 | 146.93941 | 1167 ft | 297 kts | 69° |
| 2026-04-26 11:12 | -38.14021 | 146.95756 | 852 ft | 300 kts | 23° |
| 2026-04-26 11:12 | -38.11972 | 146.96286 | 655 ft | 299 kts | 7° |
| 2026-04-26 11:12 | -38.09917 | 146.96644 | 556 ft | 297 kts | 8° |
| 2026-04-26 11:12 | -38.07966 | 146.97007 | 1096 ft | 214 kts | 9° |
| 2026-04-26 11:13 | -38.08232 | 146.97076 | 3724 ft | 128 kts | 184° |
| 2026-04-26 11:13 | -38.07226 | 146.97254 | 406 ft | 302 kts | 354° |
| 2026-04-26 11:13 | -38.06302 | 146.95365 | 545 ft | 290 kts | 247° |
| 2026-04-26 11:13 | -38.07985 | 146.94677 | 572 ft | 284 kts | 148° |
| 2026-04-26 11:14 | -38.08794 | 146.96808 | 548 ft | 282 kts | 80° |
| 2026-04-26 11:14 | -38.07646 | 146.98650 | 841 ft | 264 kts | 34° |
| 2026-04-26 11:14 | -38.06954 | 147.00554 | 1516 ft | 264 kts | 107° |
| 2026-04-26 11:14 | -38.08546 | 147.01441 | 942 ft | 300 kts | 206° |
| 2026-04-26 11:15 | -38.09291 | 146.99167 | 541 ft | 300 kts | 278° |
| 2026-04-26 11:15 | -38.08935 | 146.96548 | 306 ft | 307 kts | 280° |
| 2026-04-26 11:15 | -38.08942 | 146.96092 | 3576 ft | 138 kts | 103° |
| 2026-04-26 11:15 | -38.08892 | 146.95542 | 453 ft | 311 kts | 282° |
| 2026-04-26 11:16 | -38.07358 | 146.94557 | 830 ft | 299 kts | 39° |
| 2026-04-26 11:16 | -38.06840 | 146.96994 | 954 ft | 285 kts | 85° |
| 2026-04-26 11:16 | -38.06707 | 146.99464 | 940 ft | 282 kts | 87° |
| 2026-04-26 11:16 | -38.07565 | 147.01515 | 1025 ft | 291 kts | 162° |
| 2026-04-26 11:17 | -38.09154 | 147.00447 | 809 ft | 293 kts | 251° |
| 2026-04-26 11:17 | -38.09069 | 146.97866 | 471 ft | 296 kts | 280° |
| 2026-04-26 11:17 | -38.08819 | 146.95318 | 570 ft | 281 kts | 277° |
| 2026-04-26 11:17 | -38.08602 | 146.92906 | 801 ft | 269 kts | 278° |
| 2026-04-26 11:18 | -38.08305 | 146.90615 | 1566 ft | 251 kts | 292° |
| 2026-04-26 11:18 | -38.06984 | 146.89707 | 1965 ft | 249 kts | 23° |
| 2026-04-26 11:18 | -38.06512 | 146.91767 | 954 ft | 299 kts | 115° |
| 2026-04-26 11:18 | -38.07624 | 146.94100 | 492 ft | 308 kts | 122° |
| 2026-04-26 11:19 | -38.08028 | 146.94765 | 3987 ft | 116 kts | 298° |
| 2026-04-26 11:19 | -38.08222 | 146.94950 | 583 ft | 311 kts | 126° |
| 2026-04-26 11:19 | -38.08668 | 146.97439 | 645 ft | 303 kts | 64° |
| 2026-04-26 11:19 | -38.07379 | 146.99268 | 1391 ft | 266 kts | 59° |
| 2026-04-26 11:20 | -38.08167 | 147.00991 | 1355 ft | 290 kts | 182° |
| 2026-04-26 11:20 | -38.09131 | 146.99949 | 825 ft | 302 kts | 257° |
| 2026-04-26 11:20 | -38.08929 | 146.96378 | 530 ft | 298 kts | 274° |
| 2026-04-26 11:20 | -38.08626 | 146.93799 | 758 ft | 283 kts | 279° |
| 2026-04-26 11:21 | -38.08105 | 146.91589 | 1838 ft | 251 kts | 316° |
| 2026-04-26 11:21 | -38.06609 | 146.91877 | 1508 ft | 277 kts | 64° |
| 2026-04-26 11:21 | -38.07026 | 146.94339 | 674 ft | 307 kts | 114° |
| 2026-04-26 11:21 | -38.07883 | 146.96313 | 2668 ft | 182 kts | 142° |
| 2026-04-26 11:22 | -38.08988 | 146.97537 | 1228 ft | 277 kts | 118° |
| 2026-04-26 11:22 | -38.09677 | 147.00084 | 831 ft | 302 kts | 75° |
| 2026-04-26 11:22 | -38.08192 | 147.01322 | 1424 ft | 272 kts | 355° |
| 2026-04-26 11:22 | -38.06335 | 147.00883 | 1834 ft | 269 kts | 348° |
| 2026-04-26 11:23 | -38.04874 | 146.99515 | 1529 ft | 289 kts | 287° |
| 2026-04-26 11:23 | -38.05734 | 146.97284 | 754 ft | 316 kts | 208° |
| 2026-04-26 11:23 | -38.07838 | 146.96486 | 792 ft | 286 kts | 194° |
| 2026-04-26 11:23 | -38.08038 | 146.96384 | 4286 ft | 126 kts | 6° |
| 2026-04-26 11:24 | -38.08586 | 146.96138 | 513 ft | 324 kts | 195° |
| 2026-04-26 11:24 | -38.10673 | 146.95908 | 812 ft | 297 kts | 188° |
| 2026-04-26 11:24 | -38.12139 | 146.94432 | 1630 ft | 274 kts | 230° |
| 2026-04-26 11:24 | -38.13149 | 146.92441 | 2134 ft | 265 kts | 229° |
| 2026-04-26 11:25 | -38.14718 | 146.91390 | 2346 ft | 260 kts | 182° |
| 2026-04-26 11:25 | -38.16285 | 146.92335 | 2416 ft | 269 kts | 122° |
| 2026-04-26 11:25 | -38.16120 | 146.94641 | 1513 ft | 298 kts | 47° |
| 2026-04-26 11:25 | -38.14295 | 146.95839 | 961 ft | 305 kts | 11° |
| 2026-04-26 11:26 | -38.12195 | 146.96250 | 721 ft | 304 kts | 8° |
| 2026-04-26 11:26 | -38.10142 | 146.96627 | 563 ft | 299 kts | 8° |
| 2026-04-26 11:26 | -38.08114 | 146.97011 | 903 ft | 245 kts | 9° |
| 2026-04-26 11:26 | -38.08227 | 146.97037 | 3852 ft | 137 kts | 188° |
| 2026-04-26 11:27 | -38.07304 | 146.97337 | 475 ft | 307 kts | 21° |
| 2026-04-26 11:27 | -38.06771 | 146.99450 | 657 ft | 294 kts | 131° |
| 2026-04-26 11:27 | -38.08587 | 146.99343 | 530 ft | 293 kts | 227° |
| 2026-04-26 11:27 | -38.09064 | 146.96951 | 487 ft | 289 kts | 279° |
| 2026-04-26 11:28 | -38.09015 | 146.94501 | 709 ft | 277 kts | 245° |
| 2026-04-26 11:28 | -38.10481 | 146.93016 | 996 ft | 280 kts | 197° |
| 2026-04-26 11:28 | -38.12393 | 146.92564 | 1351 ft | 275 kts | 185° |
| 2026-04-26 11:28 | -38.13830 | 146.93801 | 1348 ft | 283 kts | 103° |
| 2026-04-26 11:29 | -38.13079 | 146.95962 | 769 ft | 300 kts | 27° |
| 2026-04-26 11:29 | -38.11060 | 146.96480 | 535 ft | 301 kts | 8° |
| 2026-04-26 11:29 | -38.09003 | 146.96850 | 453 ft | 297 kts | 8° |
| 2026-04-26 11:29 | -38.07745 | 146.97093 | 3363 ft | 40 kts | 186° |
| 2026-04-26 11:30 | -38.08275 | 146.97070 | 2247 ft | 98 kts | 14° |
| 2026-04-26 11:30 | -38.07132 | 146.97491 | 525 ft | 309 kts | 26° |
| 2026-04-26 11:30 | -38.06513 | 147.00487 | 878 ft | 293 kts | 122° |
| 2026-04-26 11:30 | -38.08252 | 147.01427 | 909 ft | 289 kts | 196° |
| 2026-04-26 11:31 | -38.09260 | 146.99430 | 538 ft | 295 kts | 275° |
| 2026-04-26 11:31 | -38.08970 | 146.96842 | 416 ft | 295 kts | 277° |
| 2026-04-26 11:31 | -38.08726 | 146.94384 | 479 ft | 277 kts | 276° |
| 2026-04-26 11:31 | -38.08504 | 146.92008 | 805 ft | 271 kts | 273° |
| 2026-04-26 11:32 | -38.09291 | 146.89979 | 1126 ft | 276 kts | 210° |
| 2026-04-26 11:32 | -38.11181 | 146.89593 | 1374 ft | 280 kts | 183° |
| 2026-04-26 11:32 | -38.13013 | 146.90011 | 1703 ft | 268 kts | 132° |
| 2026-04-26 11:32 | -38.12470 | 146.91539 | 1513 ft | 277 kts | 342° |
| 2026-04-26 11:33 | -38.10890 | 146.90306 | 1388 ft | 247 kts | 317° |
| 2026-04-26 11:33 | -38.09992 | 146.88602 | 1527 ft | 232 kts | 287° |
| 2026-04-26 11:33 | -38.10077 | 146.86587 | 1707 ft | 242 kts | 249° |
| 2026-04-26 11:33 | -38.11191 | 146.84993 | 1844 ft | 256 kts | 205° |
| 2026-04-26 11:34 | -38.12977 | 146.84964 | 1928 ft | 272 kts | 155° |
| 2026-04-26 11:34 | -38.14126 | 146.86814 | 1841 ft | 282 kts | 100° |
| 2026-04-26 11:34 | -38.13770 | 146.89212 | 1731 ft | 284 kts | 53° |
| 2026-04-26 11:34 | -38.12137 | 146.90509 | 1723 ft | 282 kts | 12° |
| 2026-04-26 11:35 | -38.10208 | 146.90916 | 1723 ft | 282 kts | 8° |
| 2026-04-26 11:35 | -38.08254 | 146.91272 | 1681 ft | 285 kts | 7° |
| 2026-04-26 11:35 | -38.06314 | 146.91615 | 1629 ft | 285 kts | 7° |
| 2026-04-26 11:35 | -38.04972 | 146.91842 | 1447 ft | 290 kts | 7° |
| 2026-04-26 11:36 | -38.02316 | 146.92087 | 1427 ft | 287 kts | 359° |
| 2026-04-26 11:36 | -38.00696 | 146.93198 | 1613 ft | 285 kts | 66° |
| 2026-04-26 11:36 | -38.01053 | 146.95613 | 1436 ft | 298 kts | 127° |
| 2026-04-26 11:36 | -38.02765 | 146.97085 | 1179 ft | 305 kts | 160° |
| 2026-04-26 11:37 | -38.04888 | 146.97425 | 742 ft | 314 kts | 184° |
| 2026-04-26 11:37 | -38.07063 | 146.97142 | 475 ft | 312 kts | 186° |
| 2026-04-26 11:37 | -38.09004 | 146.96512 | 574 ft | 285 kts | 258° |
| 2026-04-26 11:37 | -38.08801 | 146.94138 | 1299 ft | 188 kts | 279° |
| 2026-04-26 11:38 | -38.08757 | 146.94389 | 3680 ft | 114 kts | 81° |
| 2026-04-26 11:38 | -38.08970 | 146.96149 | 446 ft | 314 kts | 101° |
| 2026-04-26 11:38 | -38.08357 | 146.98365 | 575 ft | 291 kts | 6° |
| 2026-04-26 11:38 | -38.07661 | 146.96578 | 530 ft | 284 kts | 232° |
| 2026-04-26 11:39 | -38.09064 | 146.97128 | 484 ft | 277 kts | 97° |
| 2026-04-26 11:39 | -38.09470 | 146.99398 | 1204 ft | 238 kts | 148° |
| 2026-04-26 11:39 | -38.10915 | 146.98910 | 2075 ft | 245 kts | 214° |
| 2026-04-26 11:39 | -38.12446 | 146.97506 | 1854 ft | 292 kts | 218° |
| 2026-04-26 11:40 | -38.13350 | 146.95416 | 2116 ft | 292 kts | 268° |
| 2026-04-26 11:40 | -38.12663 | 146.93027 | 2029 ft | 304 kts | 318° |
| 2026-04-26 11:40 | -38.10699 | 146.92756 | 2322 ft | 307 kts | 27° |
| 2026-04-26 11:40 | -38.09494 | 146.95089 | 1436 ft | 343 kts | 65° |
| 2026-04-26 11:41 | -38.08483 | 146.97835 | 1006 ft | 326 kts | 32° |
| 2026-04-26 11:42 | -38.09221 | 147.09914 | 520 ft | 301 kts | 96° |
| 2026-04-26 11:43 | -38.09545 | 147.12539 | 201 ft | 301 kts | 98° |
| 2026-04-26 11:43 | -38.09836 | 147.15069 | 570 ft | 256 kts | 73° |
| 2026-04-26 11:43 | -38.08882 | 147.14638 | 866 ft | 201 kts | 281° |
| 2026-04-26 11:43 | -38.08709 | 147.13098 | 875 ft | 161 kts | 279° |
| 2026-04-26 11:44 | -38.08538 | 147.11716 | 850 ft | 155 kts | 282° |
| 2026-04-26 11:44 | -38.08565 | 147.10465 | 780 ft | 148 kts | 229° |
| 2026-04-26 11:44 | -38.09372 | 147.10822 | 453 ft | 163 kts | 95° |
| 2026-04-26 11:44 | -38.09495 | 147.12253 | 89 ft | 161 kts | 97° |
| 2026-04-26 11:45 | -38.09638 | 147.13477 | 23 ft | 107 kts | 97° |
| 2026-04-26 11:45 | -38.09719 | 147.14116 | 27 ft | 60 kts | 99° |
| 2026-04-26 11:45 | -38.09768 | 147.14469 | 24 ft | 61 kts | 99° |
| 2026-04-26 11:45 | -38.09809 | 147.14720 | 18 ft | 9 kts | 153° |
| 2026-04-26 11:46 | -38.09873 | 147.14694 | 18 ft | 12 kts | 233° |
| 2026-04-26 11:46 | -38.09914 | 147.14615 | 20 ft | 8 kts | 245° |
| 2026-04-26 11:46 | -38.09913 | 147.14535 | 22 ft | 10 kts | 278° |
| 2026-04-26 11:46 | -38.09899 | 147.14431 | 23 ft | 19 kts | 280° |
| 2026-04-26 11:47 | -38.09879 | 147.14272 | 24 ft | 16 kts | 280° |
| 2026-04-26 11:47 | -38.09863 | 147.14153 | 27 ft | 15 kts | 279° |
| 2026-04-26 11:47 | -38.09854 | 147.14065 | 28 ft | 6 kts | 263° |
| 2026-04-26 11:47 | -38.09896 | 147.14036 | 28 ft | 9 kts | 191° |
| 2026-04-26 11:48 | -38.09923 | 147.13999 | 28 ft | 7 kts | 274° |
| 2026-04-26 11:48 | -38.09912 | 147.13910 | 28 ft | 11 kts | 276° |
| 2026-04-26 11:48 | -38.09900 | 147.13818 | 27 ft | 13 kts | 278° |
| 2026-04-26 11:48 | -38.09888 | 147.13717 | 26 ft | 13 kts | 280° |
| 2026-04-26 11:49 | -38.09879 | 147.13649 | 26 ft | 8 kts | 279° |
| 2026-04-26 11:49 | -38.09898 | 147.13632 | 29 ft | 5 kts | 188° |
| 2026-04-26 11:49 | -38.09905 | 147.13631 | 28 ft | 0 kts | 189° |